createdAt,value
2022-12-06T00:02:15.381Z,45.50
2022-12-06T00:04:42.363Z,45.50
2022-12-06T00:07:11.531Z,45.50
2022-12-06T00:09:38.538Z,45.60
2022-12-06T00:12:05.612Z,45.60
2022-12-06T00:14:32.610Z,45.60
2022-12-06T00:16:59.614Z,45.60
2022-12-06T00:19:26.719Z,45.50
2022-12-06T00:21:54.405Z,45.50
2022-12-06T00:24:22.720Z,45.40
2022-12-06T00:26:50.476Z,45.40
2022-12-06T00:29:22.438Z,45.40
2022-12-06T00:31:50.225Z,45.40
2022-12-06T00:34:17.413Z,45.40
2022-12-06T00:36:44.534Z,45.40
2022-12-06T00:39:13.911Z,45.40
2022-12-06T00:41:41.471Z,45.40
2022-12-06T00:44:08.715Z,45.40
2022-12-06T00:46:37.341Z,45.30
2022-12-06T00:49:06.019Z,45.30
2022-12-06T00:51:34.245Z,45.30
2022-12-06T00:54:02.364Z,45.30
2022-12-06T00:56:29.751Z,45.30
2022-12-06T00:58:57.109Z,45.30
2022-12-06T01:01:27.437Z,45.30
2022-12-06T01:03:58.257Z,45.20
2022-12-06T01:06:28.319Z,45.20
2022-12-06T01:08:56.453Z,45.20
2022-12-06T01:11:24.483Z,45.20
2022-12-06T01:13:51.688Z,45.20
2022-12-06T01:16:25.464Z,45.20
2022-12-06T01:18:54.981Z,45.20
2022-12-06T01:21:23.063Z,45.20
2022-12-06T01:23:50.422Z,45.20
2022-12-06T01:26:35.752Z,45.20
2022-12-06T01:29:04.149Z,45.00
2022-12-06T01:31:37.635Z,45.10
2022-12-06T01:34:07.245Z,45.10
2022-12-06T01:36:34.200Z,45.00
2022-12-06T01:39:06.477Z,45.00
2022-12-06T01:41:33.348Z,45.10
2022-12-06T01:44:00.217Z,45.10
2022-12-06T01:46:39.973Z,45.10
2022-12-06T01:49:13.311Z,45.00
2022-12-06T01:51:55.585Z,45.00
2022-12-06T01:54:24.316Z,45.60
2022-12-06T01:56:52.642Z,45.00
2022-12-06T01:59:20.521Z,45.00
2022-12-06T02:01:47.961Z,44.90
2022-12-06T02:04:15.405Z,44.90
2022-12-06T02:06:42.304Z,45.60
2022-12-06T02:09:10.547Z,44.80
2022-12-06T02:11:37.641Z,44.90
2022-12-06T02:14:07.637Z,44.90
2022-12-06T02:16:50.332Z,44.90
2022-12-06T02:19:35.656Z,44.90
2022-12-06T02:22:19.342Z,44.90
2022-12-06T02:25:02.119Z,44.90
2022-12-06T02:28:05.305Z,44.90
2022-12-06T02:31:00.123Z,44.90
2022-12-06T02:34:13.187Z,44.90
2022-12-06T02:36:45.747Z,45.00
2022-12-06T02:39:21.083Z,45.10
2022-12-06T02:42:11.403Z,45.10
2022-12-06T02:44:42.412Z,44.90
2022-12-06T02:47:11.850Z,45.00
2022-12-06T02:49:44.875Z,45.10
2022-12-06T02:52:13.346Z,45.00
2022-12-06T02:54:41.789Z,45.00
2022-12-06T02:57:08.644Z,45.00
2022-12-06T02:59:35.489Z,45.10
2022-12-06T03:02:04.213Z,45.10
2022-12-06T03:04:46.461Z,45.00
2022-12-06T03:07:28.060Z,45.00
2022-12-06T03:10:24.379Z,45.00
2022-12-06T03:13:07.813Z,45.00
2022-12-06T03:16:05.311Z,45.10
2022-12-06T03:18:38.268Z,45.00
2022-12-06T03:21:11.471Z,45.10
2022-12-06T03:23:41.186Z,45.10
2022-12-06T03:26:10.854Z,45.10
2022-12-06T03:28:38.545Z,45.10
2022-12-06T03:31:12.370Z,45.10
2022-12-06T03:33:56.150Z,45.10
2022-12-06T03:36:25.044Z,45.00
2022-12-06T03:38:55.971Z,45.10
2022-12-06T03:41:25.976Z,45.10
2022-12-06T03:43:53.223Z,45.10
2022-12-06T03:46:35.821Z,45.10
2022-12-06T03:49:06.953Z,45.10
2022-12-06T03:51:35.323Z,45.00
2022-12-06T03:54:07.908Z,45.10
2022-12-06T03:56:37.370Z,45.00
2022-12-06T03:59:08.705Z,45.10
2022-12-06T04:01:36.703Z,45.00
2022-12-06T04:04:03.784Z,45.10
2022-12-06T04:06:30.771Z,45.00
2022-12-06T04:09:16.522Z,45.00
2022-12-06T04:11:43.371Z,45.00
2022-12-06T04:14:10.717Z,45.00
2022-12-06T04:16:56.069Z,45.00
2022-12-06T04:19:23.051Z,45.10
2022-12-06T04:22:08.680Z,45.10
2022-12-06T04:24:35.513Z,45.10
2022-12-06T04:27:22.421Z,45.10
2022-12-06T04:30:08.212Z,45.10
2022-12-06T04:32:53.505Z,45.10
2022-12-06T04:35:38.765Z,45.10
2022-12-06T04:38:23.986Z,45.10
2022-12-06T04:40:50.791Z,45.10
2022-12-06T04:43:36.308Z,45.10
2022-12-06T04:46:03.296Z,45.20
2022-12-06T04:48:30.130Z,45.10
2022-12-06T04:50:56.999Z,45.20
2022-12-06T04:53:23.858Z,45.10
2022-12-06T04:55:51.761Z,45.10
2022-12-06T04:58:18.923Z,45.10
2022-12-06T05:00:45.904Z,45.10
2022-12-06T05:03:14.348Z,45.10
2022-12-06T05:05:42.336Z,45.10
2022-12-06T05:08:10.068Z,45.10
2022-12-06T05:10:37.114Z,45.10
2022-12-06T05:13:04.162Z,45.10
2022-12-06T05:15:31.131Z,45.10
2022-12-06T05:17:58.006Z,45.10
2022-12-06T05:20:25.144Z,45.00
2022-12-06T05:22:51.963Z,45.10
2022-12-06T05:25:18.813Z,45.10
2022-12-06T05:27:45.686Z,45.10
2022-12-06T05:30:13.012Z,45.00
2022-12-06T05:32:40.669Z,45.00
2022-12-06T05:35:08.184Z,45.10
2022-12-06T05:37:35.008Z,45.10
2022-12-06T05:40:02.145Z,45.10
2022-12-06T05:42:29.368Z,45.10
2022-12-06T05:44:56.252Z,45.00
2022-12-06T05:47:23.050Z,45.10
2022-12-06T05:49:51.180Z,45.10
2022-12-06T05:52:18.081Z,45.10
2022-12-06T05:54:44.894Z,45.10
2022-12-06T05:57:11.776Z,45.10
2022-12-06T05:59:38.719Z,45.70
2022-12-06T06:02:05.700Z,45.10
2022-12-06T06:04:32.725Z,45.00
2022-12-06T06:06:59.775Z,45.00
2022-12-06T06:09:27.533Z,45.10
2022-12-06T06:11:55.948Z,45.00
2022-12-06T06:14:23.300Z,45.70
2022-12-06T06:16:52.273Z,45.10
2022-12-06T06:19:19.338Z,45.10
2022-12-06T06:21:47.131Z,45.10
2022-12-06T06:24:14.008Z,45.10
2022-12-06T06:26:40.903Z,45.10
2022-12-06T06:29:07.737Z,45.10
2022-12-06T06:31:34.759Z,45.10
2022-12-06T06:34:01.650Z,45.10
2022-12-06T06:36:28.479Z,45.00
2022-12-06T06:38:55.319Z,45.10
2022-12-06T06:41:22.217Z,45.10
2022-12-06T06:43:49.035Z,45.10
2022-12-06T06:46:15.934Z,45.10
2022-12-06T06:48:42.783Z,45.10
2022-12-06T06:51:11.627Z,45.00
2022-12-06T06:53:39.005Z,45.10
2022-12-06T06:56:06.344Z,45.20
2022-12-06T06:58:33.415Z,45.10
2022-12-06T07:01:02.795Z,45.10
2022-12-06T07:03:29.641Z,45.10
2022-12-06T07:05:58.731Z,45.10
2022-12-06T07:08:26.630Z,45.30
2022-12-06T07:10:54.333Z,45.00
2022-12-06T07:13:25.300Z,45.30
2022-12-06T07:15:52.656Z,45.30
2022-12-06T07:18:20.482Z,45.30
2022-12-06T07:20:48.658Z,45.30
2022-12-06T07:23:16.130Z,45.30
2022-12-06T07:25:43.007Z,45.30
2022-12-06T07:28:09.845Z,45.30
2022-12-06T07:30:36.798Z,45.30
2022-12-06T07:33:03.782Z,45.30
2022-12-06T07:35:55.433Z,45.30
2022-12-06T07:38:17.693Z,45.40
2022-12-06T07:43:49.854Z,45.40
2022-12-06T07:46:16.750Z,45.60
2022-12-06T07:48:43.674Z,46.50
2022-12-06T07:51:10.496Z,46.10
2022-12-06T07:53:37.312Z,46.30
2022-12-06T07:56:08.183Z,46.40
2022-12-06T07:58:35.032Z,46.60
2022-12-06T08:01:03.776Z,46.70
2022-12-06T08:03:30.691Z,46.70
2022-12-06T08:05:57.569Z,46.70
2022-12-06T08:08:28.428Z,46.70
2022-12-06T08:10:59.252Z,46.60
2022-12-06T08:13:26.108Z,46.50
2022-12-06T08:15:52.952Z,46.40
2022-12-06T08:18:19.915Z,47.10
2022-12-06T08:20:46.758Z,46.50
2022-12-06T08:23:13.651Z,46.70
2022-12-06T08:25:40.545Z,46.90
2022-12-06T08:28:07.432Z,47.00
2022-12-06T08:30:34.328Z,47.00
2022-12-06T08:33:01.323Z,47.10
2022-12-06T08:35:28.115Z,47.00
2022-12-06T08:37:54.930Z,46.90
2022-12-06T08:40:21.936Z,47.00
2022-12-06T08:42:48.759Z,47.00
2022-12-06T08:45:15.648Z,47.00
2022-12-06T08:47:42.534Z,47.00
2022-12-06T08:50:09.622Z,47.00
2022-12-06T08:52:36.531Z,46.90
2022-12-06T08:55:03.516Z,46.90
2022-12-06T08:57:32.513Z,46.90
2022-12-06T08:59:59.645Z,46.80
2022-12-06T09:02:26.709Z,46.90
2022-12-06T09:04:53.686Z,46.90
2022-12-06T09:07:20.641Z,46.80
2022-12-06T09:09:47.539Z,46.80
2022-12-06T09:12:14.331Z,46.70
2022-12-06T09:14:41.540Z,46.60
2022-12-06T09:17:08.387Z,46.40
2022-12-06T09:19:35.349Z,46.40
2022-12-06T09:22:02.343Z,46.50
2022-12-06T09:24:29.210Z,46.60
2022-12-06T09:26:56.051Z,46.70
2022-12-06T09:29:23.149Z,46.90
2022-12-06T09:31:50.034Z,46.90
2022-12-06T09:34:17.436Z,47.00
2022-12-06T09:36:58.059Z,47.30
2022-12-06T09:39:30.106Z,47.30
2022-12-06T09:42:02.994Z,47.40
2022-12-06T09:44:35.811Z,47.70
2022-12-06T09:47:30.891Z,48.60
2022-12-06T09:50:11.308Z,47.70
2022-12-06T09:52:46.752Z,47.70
2022-12-06T09:55:25.058Z,47.80
2022-12-06T09:58:20.070Z,47.90
2022-12-06T10:01:05.473Z,47.80
2022-12-06T10:03:37.235Z,47.70
2022-12-06T10:06:08.151Z,47.60
2022-12-06T10:08:46.770Z,47.50
2022-12-06T10:11:46.158Z,47.50
2022-12-06T10:14:17.095Z,47.40
2022-12-06T10:17:00.059Z,47.40
2022-12-06T10:19:32.697Z,47.40
2022-12-06T10:22:05.433Z,47.30
2022-12-06T10:25:14.171Z,47.20
2022-12-06T10:27:50.277Z,46.80
2022-12-06T10:30:17.438Z,46.90
2022-12-06T10:32:51.384Z,46.80
2022-12-06T10:35:51.279Z,46.70
2022-12-06T10:38:47.721Z,46.40
2022-12-06T10:41:16.420Z,46.40
2022-12-06T10:44:16.540Z,46.50
2022-12-06T10:47:03.998Z,46.20
2022-12-06T10:49:42.388Z,46.30
2022-12-06T10:52:18.294Z,46.20
2022-12-06T10:54:57.554Z,46.10
2022-12-06T10:57:39.541Z,46.00
2022-12-06T11:00:16.557Z,46.10
2022-12-06T11:03:21.632Z,46.30
2022-12-06T11:06:09.012Z,46.10
2022-12-06T11:08:49.101Z,45.90
2022-12-06T11:11:29.344Z,47.30
2022-12-06T11:14:29.245Z,47.30
2022-12-06T11:16:58.035Z,47.20
2022-12-06T11:19:49.044Z,47.50
2022-12-06T11:22:44.393Z,48.10
2022-12-06T11:25:30.930Z,48.40
2022-12-06T11:28:34.009Z,48.10
2022-12-06T11:31:00.926Z,48.00
2022-12-06T11:33:34.464Z,48.30
2022-12-06T11:36:04.013Z,48.30
2022-12-06T11:38:31.491Z,48.20
2022-12-06T11:40:59.300Z,48.00
2022-12-06T11:43:29.632Z,47.90
2022-12-06T11:45:56.763Z,47.70
2022-12-06T11:48:25.832Z,47.80
2022-12-06T11:50:53.308Z,47.90
2022-12-06T11:53:53.891Z,47.80
2022-12-06T11:56:26.508Z,47.60
2022-12-06T11:59:03.591Z,47.60
2022-12-06T12:01:45.784Z,47.50
2022-12-06T12:04:31.620Z,47.70
2022-12-06T12:07:02.767Z,47.70
2022-12-06T12:09:33.491Z,47.70
2022-12-06T12:12:04.408Z,47.60
2022-12-06T12:14:37.225Z,47.50
2022-12-06T12:17:05.583Z,47.40
2022-12-06T12:19:38.281Z,47.40
2022-12-06T12:22:24.462Z,47.60
2022-12-06T12:25:17.836Z,47.40
2022-12-06T12:27:40.809Z,47.60
2022-12-06T12:30:23.274Z,47.60
2022-12-06T12:32:52.691Z,47.30
2022-12-06T12:35:25.215Z,47.50
2022-12-06T12:37:59.054Z,47.30
2022-12-06T12:40:28.951Z,46.90
2022-12-06T12:43:01.154Z,46.80
2022-12-06T12:45:28.137Z,46.70
2022-12-06T12:48:03.486Z,46.60
2022-12-06T12:50:31.772Z,46.40
2022-12-06T12:52:59.268Z,46.40
2022-12-06T12:55:30.985Z,46.60
2022-12-06T12:58:01.177Z,46.70
2022-12-06T13:00:35.509Z,46.70
2022-12-06T13:03:34.765Z,46.70
2022-12-06T13:06:00.500Z,46.80
2022-12-06T13:08:33.959Z,47.00
2022-12-06T13:11:03.050Z,47.00
2022-12-06T13:13:40.298Z,47.00
2022-12-06T13:16:12.568Z,47.00
2022-12-06T13:18:43.134Z,47.20
2022-12-06T13:21:25.745Z,47.20
2022-12-06T13:24:21.494Z,47.10
2022-12-06T13:27:04.736Z,47.20
2022-12-06T13:29:46.221Z,47.20
2022-12-06T13:32:21.587Z,47.20
2022-12-06T13:34:52.402Z,47.20
2022-12-06T13:38:00.547Z,47.20
2022-12-06T13:40:33.188Z,47.20
2022-12-06T13:43:01.318Z,47.30
2022-12-06T13:45:37.238Z,47.30
2022-12-06T13:48:04.215Z,47.30
2022-12-06T13:50:33.828Z,47.30
2022-12-06T13:53:02.244Z,47.30
2022-12-06T13:55:29.063Z,47.20
2022-12-06T13:57:55.965Z,47.30
2022-12-06T14:00:28.754Z,47.30
2022-12-06T14:03:26.024Z,47.20
2022-12-06T14:06:03.420Z,47.30
2022-12-06T14:08:49.579Z,47.20
2022-12-06T14:11:28.029Z,47.30
2022-12-06T14:13:58.419Z,47.40
2022-12-06T14:16:32.911Z,47.40
2022-12-06T14:19:00.105Z,47.40
2022-12-06T14:21:35.284Z,47.40
2022-12-06T14:24:02.801Z,47.40
2022-12-06T14:26:32.750Z,47.40
2022-12-06T14:29:00.808Z,47.50
2022-12-06T14:31:27.723Z,47.50
2022-12-06T14:33:55.752Z,47.50
2022-12-06T14:36:27.911Z,47.50
2022-12-06T14:39:07.643Z,47.40
2022-12-06T14:41:55.582Z,47.40
2022-12-06T14:44:29.668Z,47.50
2022-12-06T14:46:56.877Z,47.50
2022-12-06T14:49:43.148Z,47.50
2022-12-06T14:52:18.423Z,47.00
2022-12-06T14:54:45.522Z,47.10
2022-12-06T14:57:24.311Z,47.20
2022-12-06T15:00:16.146Z,48.00
2022-12-06T15:03:05.338Z,48.20
2022-12-06T15:05:49.610Z,48.60
2022-12-06T15:08:28.711Z,48.80
2022-12-06T15:11:10.564Z,49.40
2022-12-06T15:13:38.147Z,49.20
2022-12-06T15:16:08.026Z,48.80
2022-12-06T15:18:55.869Z,48.50
2022-12-06T15:21:22.733Z,48.20
2022-12-06T15:23:51.179Z,48.30
2022-12-06T15:26:19.119Z,48.20
2022-12-06T15:28:46.823Z,48.20
2022-12-06T15:31:29.028Z,48.10
2022-12-06T15:33:56.212Z,48.10
2022-12-06T15:36:30.873Z,48.10
2022-12-06T15:38:57.934Z,48.10
2022-12-06T15:41:29.011Z,48.10
2022-12-06T15:43:57.605Z,48.10
2022-12-06T15:46:27.282Z,48.10
2022-12-06T15:48:54.760Z,48.10
2022-12-06T15:51:29.299Z,48.00
2022-12-06T15:53:58.095Z,48.00
2022-12-06T15:56:29.314Z,48.00
2022-12-06T15:58:56.465Z,48.00
2022-12-06T16:01:26.799Z,48.00
2022-12-06T16:03:55.382Z,48.00
2022-12-06T16:06:24.903Z,48.00
2022-12-06T16:08:52.019Z,48.10
2022-12-06T16:11:21.926Z,48.10
2022-12-06T16:13:49.104Z,48.10
2022-12-06T16:16:16.542Z,48.00
2022-12-06T16:18:43.650Z,48.00
2022-12-06T16:21:22.572Z,47.90
2022-12-06T16:24:17.470Z,47.90
2022-12-06T16:26:45.480Z,48.00
2022-12-06T16:29:14.441Z,48.00
2022-12-06T16:31:41.488Z,48.00
2022-12-06T16:34:08.981Z,47.90
2022-12-06T16:37:02.603Z,47.80
2022-12-06T16:39:31.511Z,47.60
2022-12-06T16:41:58.324Z,47.80
2022-12-06T16:44:25.367Z,47.90
2022-12-06T16:46:52.725Z,47.90
2022-12-06T16:49:45.661Z,48.00
2022-12-06T16:52:14.106Z,47.90
2022-12-06T16:54:41.839Z,48.10
2022-12-06T16:57:11.268Z,48.10
2022-12-06T16:59:38.148Z,48.10
2022-12-06T17:02:27.526Z,48.10
2022-12-06T17:04:54.982Z,48.10
2022-12-06T17:07:21.936Z,48.10
2022-12-06T17:09:48.807Z,48.20
2022-12-06T17:12:15.705Z,48.20
2022-12-06T17:14:42.960Z,48.20
2022-12-06T17:17:17.838Z,48.20
2022-12-06T17:19:44.793Z,48.20
2022-12-06T17:22:12.911Z,48.20
2022-12-06T17:24:39.923Z,48.20
2022-12-06T17:27:08.843Z,48.20
2022-12-06T17:29:36.561Z,48.20
2022-12-06T17:32:03.475Z,48.30
2022-12-06T17:34:30.297Z,48.30
2022-12-06T17:36:57.984Z,48.20
2022-12-06T17:39:25.105Z,48.20
2022-12-06T17:42:10.460Z,48.80
2022-12-06T17:44:39.669Z,48.20
2022-12-06T17:47:06.825Z,48.20
2022-12-06T17:49:36.024Z,48.20
2022-12-06T17:52:02.821Z,48.50
2022-12-06T17:54:29.635Z,48.50
2022-12-06T17:56:56.569Z,48.70
2022-12-06T17:59:28.696Z,48.70
2022-12-06T18:02:15.126Z,49.20
2022-12-06T18:04:43.922Z,48.60
2022-12-06T18:07:12.275Z,48.60
2022-12-06T18:09:39.182Z,48.60
2022-12-06T18:12:08.689Z,48.50
2022-12-06T18:14:35.594Z,48.50
2022-12-06T18:17:02.811Z,48.50
2022-12-06T18:19:30.423Z,48.50
2022-12-06T18:21:57.335Z,48.50
2022-12-06T18:24:27.939Z,48.40
2022-12-06T18:26:57.777Z,48.30
2022-12-06T18:29:24.795Z,48.30
2022-12-06T18:31:52.243Z,48.30
2022-12-06T18:34:19.674Z,48.10
2022-12-06T18:36:46.936Z,48.20
2022-12-06T18:39:16.147Z,48.10
2022-12-06T18:41:44.463Z,48.00
2022-12-06T18:44:12.476Z,48.00
2022-12-06T18:46:42.086Z,47.80
2022-12-06T18:49:12.983Z,48.00
2022-12-06T18:51:40.017Z,47.90
2022-12-06T18:54:08.118Z,48.00
2022-12-06T18:56:36.098Z,48.00
2022-12-06T18:59:05.558Z,48.70
2022-12-06T19:01:34.451Z,48.00
2022-12-06T19:04:03.348Z,48.60
2022-12-06T19:06:34.762Z,48.90
2022-12-06T19:09:07.514Z,49.20
2022-12-06T19:11:39.223Z,49.30
2022-12-06T19:14:06.518Z,49.60
2022-12-06T19:16:36.378Z,49.70
2022-12-06T19:19:04.964Z,49.70
2022-12-06T19:21:33.213Z,49.70
2022-12-06T19:24:00.537Z,49.80
2022-12-06T19:26:28.764Z,49.90
2022-12-06T19:28:56.022Z,50.10
2022-12-06T19:31:23.302Z,50.10
2022-12-06T19:33:51.474Z,50.10
2022-12-06T19:36:24.175Z,50.10
2022-12-06T19:38:58.395Z,50.10
2022-12-06T19:41:25.951Z,50.20
2022-12-06T19:44:11.752Z,50.30
2022-12-06T19:46:38.901Z,50.20
2022-12-06T19:49:07.024Z,50.20
2022-12-06T19:51:41.783Z,50.20
2022-12-06T19:54:09.673Z,50.20
2022-12-06T19:56:36.900Z,50.10
2022-12-06T19:59:11.454Z,50.10
2022-12-06T20:01:43.623Z,50.10
2022-12-06T20:04:23.436Z,50.20
2022-12-06T20:06:51.629Z,50.10
2022-12-06T20:09:20.051Z,50.20
2022-12-06T20:12:02.284Z,50.30
2022-12-06T20:14:39.460Z,50.20
2022-12-06T20:17:09.606Z,50.20
2022-12-06T20:19:37.377Z,50.10
2022-12-06T20:22:04.585Z,50.10
2022-12-06T20:24:31.620Z,50.00
2022-12-06T20:26:58.467Z,50.10
2022-12-06T20:29:27.101Z,50.00
2022-12-06T20:31:57.821Z,50.00
2022-12-06T20:34:25.899Z,50.00
2022-12-06T20:36:52.965Z,50.00
2022-12-06T20:39:22.379Z,50.00
2022-12-06T20:41:49.960Z,50.00
2022-12-06T20:44:17.378Z,49.90
2022-12-06T20:46:44.438Z,50.40
2022-12-06T20:49:11.403Z,49.80
2022-12-06T20:51:38.375Z,49.50
2022-12-06T20:54:06.983Z,49.20
2022-12-06T20:56:39.158Z,49.10
2022-12-06T20:59:07.822Z,49.00
2022-12-06T21:01:37.281Z,49.00
2022-12-06T21:04:04.435Z,49.00
2022-12-06T21:06:31.288Z,49.00
2022-12-06T21:08:58.419Z,49.00
2022-12-06T21:11:25.888Z,49.00
2022-12-06T21:13:54.063Z,49.00
2022-12-06T21:16:26.905Z,49.00
2022-12-06T21:19:01.732Z,49.00
2022-12-06T21:21:34.646Z,49.00
2022-12-06T21:24:07.053Z,48.80
2022-12-06T21:26:34.517Z,48.80
2022-12-06T21:29:01.598Z,48.70
2022-12-06T21:31:30.452Z,48.70
2022-12-06T21:33:57.439Z,48.70
2022-12-06T21:36:25.090Z,48.70
2022-12-06T21:38:52.374Z,48.70
2022-12-06T21:41:19.793Z,48.60
2022-12-06T21:43:47.070Z,48.60
2022-12-06T21:46:17.026Z,48.60
2022-12-06T21:48:45.046Z,48.60
2022-12-06T21:51:14.687Z,48.60
2022-12-06T21:53:41.617Z,48.60
2022-12-06T21:56:10.167Z,48.60
2022-12-06T21:58:37.095Z,48.60
2022-12-06T22:01:12.431Z,48.50
2022-12-06T22:03:40.272Z,48.50
2022-12-06T22:06:09.227Z,48.50
2022-12-06T22:08:36.445Z,48.50
2022-12-06T22:11:07.758Z,48.50
2022-12-06T22:13:34.859Z,48.50
2022-12-06T22:16:04.697Z,48.40
2022-12-06T22:18:31.980Z,48.50
2022-12-06T22:21:04.692Z,48.50
2022-12-06T22:23:32.253Z,48.40
2022-12-06T22:26:00.094Z,48.40
2022-12-06T22:28:26.963Z,48.40
2022-12-06T22:30:53.825Z,48.40
2022-12-06T22:33:20.875Z,48.40
2022-12-06T22:35:47.719Z,48.40
2022-12-06T22:38:14.641Z,48.40
2022-12-06T22:40:41.480Z,48.30
2022-12-06T22:43:08.453Z,48.30
2022-12-06T22:45:35.394Z,48.30
2022-12-06T22:48:02.218Z,48.30
2022-12-06T22:50:29.049Z,48.30
2022-12-06T22:52:55.976Z,48.20
2022-12-06T22:55:22.871Z,48.20
2022-12-06T22:57:49.707Z,48.20
2022-12-06T23:00:17.065Z,48.10
2022-12-06T23:02:44.097Z,48.20
2022-12-06T23:05:10.914Z,48.10
2022-12-06T23:07:37.825Z,48.20
2022-12-06T23:10:05.287Z,48.10
2022-12-06T23:12:32.143Z,48.10
2022-12-06T23:14:58.975Z,48.20
2022-12-06T23:17:25.801Z,48.80
2022-12-06T23:19:52.674Z,48.20
2022-12-06T23:22:19.512Z,48.10
2022-12-06T23:24:49.471Z,48.20
2022-12-06T23:27:16.824Z,48.20
2022-12-06T23:29:43.754Z,48.20
2022-12-06T23:32:13.307Z,48.20
2022-12-06T23:34:40.219Z,48.40
2022-12-06T23:37:07.068Z,48.20
2022-12-06T23:39:33.892Z,48.10
2022-12-06T23:42:00.780Z,48.00
2022-12-06T23:44:27.644Z,47.90
2022-12-06T23:46:54.633Z,47.80
2022-12-06T23:49:22.158Z,47.80
2022-12-06T23:51:49.163Z,47.60
2022-12-06T23:54:17.492Z,47.60
2022-12-06T23:56:44.461Z,47.60
2022-12-06T23:59:14.380Z,47.50
